Time;durP1;ratioP1;P1;durP2;ratioP2;P2;SDS_P1;SDS_P2;PMS_P1;PMS_P2;Temp;Humidity;BMP_temperature;BMP_pressure;BME280_temperature;BME280_humidity;BME280_pressure;Samples;Min_cycle;Max_cycle;Signal;HPM_P1;HPM_P2
2022/06/28 00:00:57;;;;;;;13.35;9.73;;;14.60;99.90;;;;;;5016643;28;20038;-80
2022/06/28 00:03:23;;;;;;;10.23;8.77;;;14.50;99.90;;;;;;5016948;28;20042;-79
2022/06/28 00:05:49;;;;;;;10.55;8.75;;;14.50;99.90;;;;;;5000567;28;20053;-80
2022/06/28 00:08:14;;;;;;;8.20;7.25;;;14.40;99.90;;;;;;5016768;28;20175;-79
2022/06/28 00:10:40;;;;;;;8.65;7.78;;;14.30;99.90;;;;;;5016697;28;20052;-80
2022/06/28 00:13:05;;;;;;;9.93;8.68;;;14.30;99.90;;;;;;5016540;28;20060;-80
2022/06/28 00:18:15;;;;;;;17.02;9.90;;;14.40;99.90;;;;;;5016500;28;20057;-80
2022/06/28 00:20:41;;;;;;;10.07;8.80;;;14.40;99.90;;;;;;5016156;28;20041;-80
2022/06/28 00:23:06;;;;;;;11.25;9.30;;;14.30;99.90;;;;;;5015757;28;20039;-79
2022/06/28 00:25:32;;;;;;;13.90;10.13;;;14.30;99.90;;;;;;5015597;28;20049;-80
2022/06/28 00:27:58;;;;;;;12.00;9.60;;;14.20;99.90;;;;;;5015695;28;20033;-80
2022/06/28 00:30:23;;;;;;;11.57;8.52;;;14.30;99.90;;;;;;5015489;28;20049;-80
2022/06/28 00:32:49;;;;;;;11.18;8.50;;;14.20;99.90;;;;;;4999490;28;20494;-79
2022/06/28 00:35:15;;;;;;;9.98;9.07;;;14.20;99.90;;;;;;4998931;28;20079;-79
2022/06/28 00:37:40;;;;;;;10.00;8.63;;;14.20;99.90;;;;;;5015900;28;20597;-79
2022/06/28 00:40:07;;;;;;;9.77;8.77;;;14.10;99.90;;;;;;4999708;28;20045;-79
2022/06/28 00:42:32;;;;;;;10.63;9.15;;;14.20;99.90;;;;;;4998996;28;20041;-79
2022/06/28 00:44:58;;;;;;;11.38;10.23;;;14.10;99.90;;;;;;5015251;28;20060;-80
2022/06/28 00:47:26;;;;;;;11.57;10.38;;;14.10;99.90;;;;;;5015501;28;20049;-80
2022/06/28 00:49:56;;;;;;;11.93;9.80;;;14.10;99.90;;;;;;5014925;28;20044;-80
2022/06/28 00:52:21;;;;;;;15.30;10.45;;;14.00;99.90;;;;;;5015385;28;20084;-79
2022/06/28 00:54:47;;;;;;;14.25;10.32;;;14.00;99.90;;;;;;5014512;28;20041;-79
2022/06/28 00:57:12;;;;;;;13.15;11.75;;;14.00;99.90;;;;;;5014811;28;20069;-79
2022/06/28 00:59:38;;;;;;;13.60;10.93;;;14.00;99.90;;;;;;5014808;28;20041;-79
2022/06/28 01:02:03;;;;;;;13.55;11.40;;;14.10;99.90;;;;;;5014839;28;20073;-79
2022/06/28 01:04:29;;;;;;;13.63;10.48;;;14.00;99.90;;;;;;5015047;28;20041;-79
2022/06/28 01:06:55;;;;;;;15.60;10.45;;;13.90;99.90;;;;;;5032159;28;20558;-79
2022/06/28 01:09:21;;;;;;;13.30;10.73;;;14.00;99.90;;;;;;5015047;28;20045;-79
2022/06/28 01:11:47;;;;;;;17.30;11.88;;;14.00;99.90;;;;;;4999097;28;20030;-79
2022/06/28 01:14:13;;;;;;;13.73;11.45;;;13.90;99.90;;;;;;5014853;28;20121;-79
2022/06/28 01:16:39;;;;;;;12.82;11.07;;;13.90;99.90;;;;;;5014248;28;20095;-79
2022/06/28 01:19:06;;;;;;;13.35;11.73;;;14.00;99.90;;;;;;5014395;28;20124;-79
2022/06/28 01:21:35;;;;;;;14.82;12.90;;;13.90;99.90;;;;;;5015436;28;20041;-79
2022/06/28 01:24:01;;;;;;;14.13;11.18;;;14.00;99.90;;;;;;5015210;28;20049;-79
2022/06/28 01:26:29;;;;;;;16.60;12.43;;;13.90;99.90;;;;;;4998642;28;20464;-79
2022/06/28 01:28:54;;;;;;;13.70;11.02;;;13.90;99.90;;;;;;5014387;28;20053;-80
2022/06/28 01:31:22;;;;;;;12.93;10.40;;;13.90;99.90;;;;;;4997938;28;20556;-79
2022/06/28 01:33:49;;;;;;;14.80;11.57;;;13.90;99.90;;;;;;5014445;28;20037;-80
2022/06/28 01:36:15;;;;;;;12.95;11.00;;;13.90;99.90;;;;;;4998133;28;20514;-79
2022/06/28 01:38:41;;;;;;;15.90;10.43;;;13.90;99.90;;;;;;5014607;28;20037;-79
2022/06/28 01:41:08;;;;;;;13.77;11.05;;;13.90;99.90;;;;;;4998306;28;20395;-79
2022/06/28 01:43:36;;;;;;;14.27;10.93;;;13.90;99.90;;;;;;4998111;28;20132;-80
2022/06/28 01:46:06;;;;;;;13.80;10.60;;;13.90;99.90;;;;;;5013880;28;20052;-80
2022/06/28 01:48:32;;;;;;;12.55;10.68;;;13.80;99.90;;;;;;5014471;28;20041;-79
2022/06/28 01:50:58;;;;;;;11.70;10.48;;;13.70;99.90;;;;;;5014140;28;20041;-79
2022/06/28 01:53:24;;;;;;;15.93;10.35;;;13.70;99.90;;;;;;5014119;28;20045;-79
2022/06/28 01:55:49;;;;;;;16.38;11.13;;;13.80;99.90;;;;;;5013718;28;20038;-80
2022/06/28 01:58:16;;;;;;;11.77;10.27;;;13.70;99.90;;;;;;5015126;28;20037;-79
2022/06/28 02:00:41;;;;;;;14.07;11.02;;;13.70;99.90;;;;;;5013975;28;20041;-79
2022/06/28 02:03:07;;;;;;;12.88;10.63;;;13.60;99.90;;;;;;5014266;28;20114;-79
2022/06/28 02:05:34;;;;;;;13.02;11.63;;;13.70;99.90;;;;;;5013746;28;20056;-80
2022/06/28 02:08:00;;;;;;;14.32;10.23;;;13.60;99.90;;;;;;5017280;28;20053;-80
2022/06/28 02:10:26;;;;;;;11.70;10.48;;;13.50;99.90;;;;;;5001730;28;20064;-79
2022/06/28 02:12:52;;;;;;;14.85;10.70;;;13.50;99.90;;;;;;5035077;28;20088;-80
2022/06/28 02:15:18;;;;;;;14.35;11.40;;;13.50;99.90;;;;;;5018171;28;20033;-79
2022/06/28 02:17:44;;;;;;;14.48;12.00;;;13.40;99.90;;;;;;5018414;28;20178;-79
2022/06/28 02:20:11;;;;;;;14.07;11.48;;;13.50;99.90;;;;;;5001714;28;20037;-79
2022/06/28 02:22:36;;;;;;;15.68;13.45;;;13.40;99.90;;;;;;5001942;28;20042;-79
2022/06/28 02:25:03;;;;;;;12.52;11.30;;;13.40;99.90;;;;;;5001913;28;20050;-79
2022/06/28 02:27:28;;;;;;;13.35;11.98;;;13.50;99.90;;;;;;5002265;28;20081;-79
2022/06/28 02:29:54;;;;;;;16.00;12.10;;;13.50;99.90;;;;;;5018856;28;20037;-80
2022/06/28 02:32:20;;;;;;;15.20;12.75;;;13.40;99.90;;;;;;5018886;28;20049;-80
2022/06/28 02:40:23;;;;;;;14.50;12.07;;;13.30;99.90;;;;;;5018186;28;20041;-80
2022/06/28 02:42:50;;;;;;;15.38;11.30;;;13.30;99.90;;;;;;5002099;28;20120;-80
2022/06/28 02:45:16;;;;;;;15.15;11.80;;;13.30;99.90;;;;;;5018032;28;20084;-79
2022/06/28 02:47:41;;;;;;;15.45;11.55;;;13.30;99.90;;;;;;5004055;28;20116;-80
2022/06/28 02:50:08;;;;;;;16.23;13.15;;;13.20;99.90;;;;;;5019468;28;20033;-79
2022/06/28 02:52:33;;;;;;;17.38;13.32;;;13.30;99.90;;;;;;5019020;28;20394;-80
2022/06/28 02:54:59;;;;;;;16.27;12.50;;;13.30;99.90;;;;;;5002127;28;20033;-80
2022/06/28 02:57:25;;;;;;;16.30;12.63;;;13.20;99.90;;;;;;5018921;28;20087;-79
2022/06/28 02:59:50;;;;;;;17.73;13.68;;;13.20;99.90;;;;;;5018772;28;20045;-79
2022/06/28 03:02:16;;;;;;;16.92;13.80;;;13.20;99.90;;;;;;5018264;28;20041;-80
2022/06/28 03:04:41;;;;;;;27.15;12.45;;;13.30;99.90;;;;;;5002091;28;20457;-80
2022/06/28 03:07:07;;;;;;;20.67;13.43;;;13.20;99.90;;;;;;5001502;28;20571;-79
2022/06/28 03:09:32;;;;;;;16.95;12.27;;;13.10;99.90;;;;;;5002165;28;20140;-80
2022/06/28 03:11:58;;;;;;;16.55;12.45;;;13.20;99.90;;;;;;5002345;28;20515;-79
2022/06/28 03:14:23;;;;;;;16.15;12.70;;;13.10;99.90;;;;;;5018049;28;20029;-79
2022/06/28 03:16:49;;;;;;;17.55;11.07;;;13.20;99.90;;;;;;5018010;28;20053;-79
2022/06/28 03:19:14;;;;;;;13.80;11.23;;;13.10;99.90;;;;;;5001176;28;20033;-80
2022/06/28 03:21:41;;;;;;;15.50;11.80;;;13.10;99.90;;;;;;5039747;23;20045;-71
2022/06/28 03:24:06;;;;;;;19.63;12.02;;;13.20;99.90;;;;;;5016363;28;20475;-71
2022/06/28 03:26:32;;;;;;;14.05;11.10;;;13.20;99.90;;;;;;5016205;28;20098;-71
2022/06/28 03:28:58;;;;;;;16.63;10.85;;;13.30;99.90;;;;;;5016602;28;20467;-71
2022/06/28 03:31:23;;;;;;;16.92;11.40;;;13.20;99.90;;;;;;5034171;28;20034;-71
2022/06/28 03:33:49;;;;;;;14.88;10.52;;;13.30;99.90;;;;;;5034008;28;20047;-71
2022/06/28 03:36:14;;;;;;;15.98;10.00;;;13.20;99.90;;;;;;5016055;28;20040;-71
2022/06/28 03:38:40;;;;;;;16.17;11.45;;;13.20;99.90;;;;;;5033910;28;20136;-71
2022/06/28 03:41:06;;;;;;;12.35;10.50;;;13.20;99.90;;;;;;5016144;28;20077;-71
2022/06/28 03:43:31;;;;;;;14.48;11.35;;;13.30;99.90;;;;;;5032953;28;20100;-71
2022/06/28 03:45:57;;;;;;;14.63;10.45;;;13.20;99.90;;;;;;5016008;28;20042;-71
2022/06/28 03:48:22;;;;;;;14.15;10.82;;;13.20;99.90;;;;;;5033772;28;20124;-71
2022/06/28 03:50:48;;;;;;;14.73;11.23;;;13.20;99.90;;;;;;5033572;28;20496;-71
2022/06/28 03:53:14;;;;;;;12.65;10.43;;;13.20;99.90;;;;;;5033585;28;20040;-71
2022/06/28 03:55:39;;;;;;;17.13;12.23;;;13.10;99.90;;;;;;5033304;28;20045;-71
2022/06/28 03:58:05;;;;;;;15.95;11.30;;;13.10;99.90;;;;;;5016164;28;20045;-71
2022/06/28 04:00:30;;;;;;;16.42;10.65;;;13.20;99.90;;;;;;5033637;28;20042;-71
2022/06/28 04:02:58;;;;;;;15.82;10.85;;;13.20;99.90;;;;;;5033503;28;20494;-71
2022/06/28 04:05:24;;;;;;;14.88;11.40;;;13.20;99.90;;;;;;5015306;28;20046;-71
2022/06/28 04:07:50;;;;;;;16.17;12.05;;;13.20;99.90;;;;;;5033212;28;20048;-71
2022/06/28 04:10:15;;;;;;;14.15;11.45;;;13.20;99.90;;;;;;5033536;28;20034;-71
2022/06/28 04:12:41;;;;;;;16.05;12.90;;;13.20;99.90;;;;;;5033461;28;20068;-71
2022/06/28 04:15:07;;;;;;;15.05;12.38;;;13.30;99.90;;;;;;5033456;28;20404;-71
2022/06/28 04:17:32;;;;;;;14.93;11.38;;;13.30;99.90;;;;;;5033309;28;20045;-71
2022/06/28 04:19:58;;;;;;;14.88;11.25;;;13.30;99.90;;;;;;5033009;28;20032;-71
2022/06/28 04:22:23;;;;;;;21.55;11.98;;;13.30;99.90;;;;;;5033195;28;20042;-71
2022/06/28 04:24:49;;;;;;;16.27;11.07;;;13.30;99.90;;;;;;5033062;28;20534;-71
2022/06/28 04:27:14;;;;;;;17.33;10.73;;;13.20;99.90;;;;;;5015244;28;20136;-71
2022/06/28 04:29:40;;;;;;;15.00;11.35;;;13.20;99.90;;;;;;5032434;28;20044;-71
2022/06/28 04:32:06;;;;;;;16.48;12.27;;;13.30;99.90;;;;;;5032887;28;20064;-71
2022/06/28 04:34:32;;;;;;;18.48;12.75;;;13.20;99.90;;;;;;5015168;28;20076;-71
2022/06/28 04:36:57;;;;;;;17.23;11.57;;;13.20;99.90;;;;;;5032821;28;20073;-71
2022/06/28 04:39:24;;;;;;;18.60;12.25;;;13.30;99.90;;;;;;5015383;28;20048;-71
2022/06/28 04:41:50;;;;;;;15.68;12.27;;;13.40;99.90;;;;;;5032795;28;20116;-71
2022/06/28 04:44:15;;;;;;;14.00;11.40;;;13.30;99.90;;;;;;5015027;28;20069;-71
2022/06/28 04:46:41;;;;;;;20.50;14.23;;;13.50;99.90;;;;;;5032479;28;20127;-71
2022/06/28 04:49:07;;;;;;;17.77;13.88;;;13.60;99.90;;;;;;5032595;28;20092;-71
2022/06/28 04:51:32;;;;;;;17.75;13.63;;;13.90;99.90;;;;;;5032416;28;20060;-71
2022/06/28 04:53:58;;;;;;;15.18;13.00;;;14.10;99.90;;;;;;5032849;28;20601;-71
2022/06/28 04:56:24;;;;;;;16.58;14.13;;;14.30;99.90;;;;;;5032390;28;20045;-71
2022/06/28 04:58:50;;;;;;;15.93;13.88;;;14.60;99.90;;;;;;5032632;28;20045;-71
2022/06/28 05:01:17;;;;;;;16.80;13.23;;;14.90;99.90;;;;;;5032293;28;20037;-71
2022/06/28 05:03:42;;;;;;;16.33;13.18;;;15.20;99.90;;;;;;5014848;28;20053;-71
2022/06/28 05:06:08;;;;;;;18.75;13.35;;;15.50;99.90;;;;;;5031888;28;20116;-71
2022/06/28 05:08:34;;;;;;;15.40;12.75;;;15.70;99.90;;;;;;5032348;28;20048;-71
2022/06/28 05:11:00;;;;;;;14.65;12.38;;;16.10;99.90;;;;;;5032256;28;20033;-71
2022/06/28 05:13:26;;;;;;;14.40;11.88;;;16.30;99.90;;;;;;5030975;28;20124;-71
2022/06/28 05:15:51;;;;;;;16.02;11.13;;;16.60;99.90;;;;;;5031932;28;20117;-71
2022/06/28 05:18:17;;;;;;;17.08;10.60;;;16.80;99.90;;;;;;5032083;28;20515;-71
2022/06/28 05:20:42;;;;;;;17.50;11.07;;;17.00;99.90;;;;;;5014103;28;20111;-71
2022/06/28 05:23:08;;;;;;;12.48;9.18;;;17.40;99.90;;;;;;5032217;28;20044;-71
2022/06/28 05:25:34;;;;;;;11.07;9.63;;;17.60;99.90;;;;;;5014007;28;20123;-71
2022/06/28 05:27:59;;;;;;;13.27;9.25;;;17.90;99.90;;;;;;5030614;28;20049;-71
2022/06/28 05:30:25;;;;;;;10.15;7.93;;;18.10;99.90;;;;;;5031951;28;20120;-71
2022/06/28 05:32:50;;;;;;;10.55;8.88;;;18.20;99.90;;;;;;5031933;28;20037;-72
2022/06/28 05:35:16;;;;;;;9.98;8.13;;;18.30;99.90;;;;;;5031484;28;20495;-71
2022/06/28 05:37:41;;;;;;;11.57;7.75;;;18.40;99.90;;;;;;5031947;28;20068;-71
2022/06/28 05:40:07;;;;;;;12.45;7.53;;;18.60;99.90;;;;;;5031691;28;20586;-71
2022/06/28 05:42:33;;;;;;;11.48;7.38;;;18.80;99.90;;;;;;5013513;28;20435;-71
2022/06/28 05:44:59;;;;;;;12.30;7.38;;;18.90;99.90;;;;;;5013678;28;20057;-71
2022/06/28 05:47:25;;;;;;;12.45;6.82;;;19.20;99.90;;;;;;5031644;28;20041;-71
2022/06/28 05:49:50;;;;;;;13.73;5.85;;;19.50;99.90;;;;;;4997384;28;20506;-71
2022/06/28 05:52:16;;;;;;;10.43;5.35;;;19.60;99.90;;;;;;5030381;28;20038;-72
2022/06/28 05:54:42;;;;;;;8.90;6.40;;;19.90;99.90;;;;;;5031777;28;20034;-71
2022/06/28 05:57:07;;;;;;;11.48;5.57;;;20.00;99.90;;;;;;5030149;28;20043;-72
2022/06/28 05:59:33;;;;;;;10.25;5.60;;;20.10;99.90;;;;;;5031517;28;20069;-72
2022/06/28 06:01:58;;;;;;;7.80;4.75;;;20.40;99.90;;;;;;5030303;28;20045;-72
2022/06/28 06:04:27;;;;;;;7.97;4.47;;;20.60;99.90;;;;;;5031461;28;20128;-72
2022/06/28 06:06:54;;;;;;;9.30;5.47;;;20.80;99.90;;;;;;5013675;28;20045;-72
2022/06/28 06:09:19;;;;;;;10.50;4.20;;;20.70;99.90;;;;;;5031503;28;20052;-72
2022/06/28 06:11:47;;;;;;;8.25;5.10;;;20.40;99.90;;;;;;5031364;28;20633;-72
2022/06/28 06:14:14;;;;;;;7.60;4.50;;;20.10;99.90;;;;;;5031426;28;20116;-71
2022/06/28 06:16:39;;;;;;;9.30;4.72;;;20.00;99.90;;;;;;5031063;28;20037;-71
2022/06/28 06:19:05;;;;;;;8.38;5.05;;;19.90;99.90;;;;;;5031322;28;20148;-71
2022/06/28 06:21:31;;;;;;;8.43;4.70;;;20.10;99.90;;;;;;5030250;28;20132;-71
2022/06/28 06:23:56;;;;;;;6.38;5.03;;;19.90;99.90;;;;;;5031447;28;20052;-71
2022/06/28 06:26:23;;;;;;;9.00;5.28;;;19.60;99.90;;;;;;5013576;28;20050;-71
2022/06/28 06:28:49;;;;;;;10.68;4.70;;;19.40;99.90;;;;;;5031170;28;20045;-71
2022/06/28 06:31:14;;;;;;;7.75;4.82;;;19.10;99.90;;;;;;5031172;28;20030;-70
2022/06/28 06:33:40;;;;;;;14.38;4.53;;;19.40;99.90;;;;;;5031203;28;20117;-71
2022/06/28 06:36:06;;;;;;;12.85;3.90;;;19.70;99.90;;;;;;5031057;28;20558;-71
2022/06/28 06:38:31;;;;;;;8.77;5.10;;;20.10;99.90;;;;;;5031319;28;20041;-71
2022/06/28 06:40:58;;;;;;;12.15;4.65;;;20.40;99.90;;;;;;5031193;28;20105;-71
2022/06/28 06:43:26;;;;;;;7.60;4.35;;;20.60;99.90;;;;;;4997097;28;20034;-71
2022/06/28 06:45:52;;;;;;;8.05;4.55;;;20.80;99.90;;;;;;5013239;28;20446;-71
2022/06/28 06:48:18;;;;;;;9.40;5.20;;;20.80;99.90;;;;;;5031210;28;20041;-71
2022/06/28 06:50:44;;;;;;;7.82;5.05;;;20.40;99.90;;;;;;5030178;28;20052;-71
2022/06/28 06:53:10;;;;;;;13.88;5.35;;;20.40;99.90;;;;;;5031167;28;20044;-71
2022/06/28 06:55:36;;;;;;;6.35;4.25;;;20.60;99.90;;;;;;5034703;28;20050;-71
2022/06/28 06:58:02;;;;;;;9.60;3.58;;;20.90;99.90;;;;;;5034953;28;20044;-71
2022/06/28 07:00:27;;;;;;;7.53;3.92;;;21.40;99.90;;;;;;5033691;28;20107;-71
2022/06/28 07:02:53;;;;;;;5.32;3.78;;;21.80;99.90;;;;;;5011119;28;20500;-71
2022/06/28 07:05:18;;;;;;;7.47;3.22;;;22.00;99.90;;;;;;5005483;28;20045;-71
2022/06/28 07:07:44;;;;;;;8.27;3.92;;;22.00;99.90;;;;;;5022826;28;20038;-71
2022/06/28 07:10:10;;;;;;;6.43;3.70;;;22.30;99.90;;;;;;5014776;28;20034;-71
2022/06/28 07:12:35;;;;;;;8.35;3.40;;;22.30;99.90;;;;;;4997074;28;20113;-71
2022/06/28 07:15:01;;;;;;;4.22;2.67;;;22.60;99.90;;;;;;4996804;28;20037;-71
2022/06/28 07:17:26;;;;;;;9.30;3.55;;;22.60;99.90;;;;;;5014416;28;20093;-71
2022/06/28 07:19:52;;;;;;;7.68;3.13;;;22.30;99.90;;;;;;5014567;28;20042;-71
2022/06/28 07:22:17;;;;;;;7.88;3.15;;;22.20;99.90;;;;;;5014567;28;20042;-71
2022/06/28 07:24:43;;;;;;;6.72;3.17;;;22.50;99.90;;;;;;4996987;28;20046;-71
2022/06/28 07:27:08;;;;;;;10.50;3.38;;;22.70;99.90;;;;;;5014185;28;20034;-71
2022/06/28 07:29:34;;;;;;;9.20;2.63;;;22.90;99.90;;;;;;4996662;28;20112;-71
2022/06/28 07:32:00;;;;;;;7.93;2.50;;;22.90;99.90;;;;;;5014525;28;20084;-71
2022/06/28 07:34:25;;;;;;;8.35;2.45;;;22.90;99.90;;;;;;4997182;28;20041;-71
2022/06/28 07:36:51;;;;;;;7.65;2.70;;;23.10;99.90;;;;;;4996904;28;20092;-71
2022/06/28 07:39:18;;;;;;;6.93;3.10;;;22.80;99.90;;;;;;5014712;28;20038;-71
2022/06/28 07:41:44;;;;;;;6.95;2.97;;;22.60;99.90;;;;;;5014193;28;20048;-71
2022/06/28 07:44:10;;;;;;;3.92;2.30;;;22.10;99.90;;;;;;4997655;28;20037;-71
2022/06/28 07:46:35;;;;;;;7.90;2.38;;;21.90;99.90;;;;;;5010281;28;20044;-74
2022/06/28 07:49:01;;;;;;;7.50;2.47;;;21.80;99.90;;;;;;5033074;28;20037;-71
2022/06/28 07:54:11;;;;;;;7.30;2.50;;;21.20;99.90;;;;;;5033648;28;20116;-71
2022/06/28 07:56:36;;;;;;;12.30;2.67;;;21.00;99.90;;;;;;5033496;28;20116;-71
2022/06/28 07:59:02;;;;;;;13.30;2.78;;;21.00;99.90;;;;;;5033662;28;20499;-72
2022/06/28 08:01:28;;;;;;;9.10;2.40;;;21.30;99.90;;;;;;5033674;28;20041;-71
2022/06/28 08:03:53;;;;;;;10.23;3.22;;;21.00;99.90;;;;;;5015445;28;20380;-71
2022/06/28 08:06:19;;;;;;;6.97;1.90;;;20.80;99.90;;;;;;5015145;28;20100;-71
2022/06/28 08:08:45;;;;;;;5.32;2.08;;;20.40;99.90;;;;;;5033358;28;20041;-71
2022/06/28 08:11:10;;;;;;;5.45;2.30;;;20.40;99.90;;;;;;5015434;28;20041;-72
2022/06/28 08:13:37;;;;;;;6.30;1.55;;;20.50;99.90;;;;;;5033186;28;20038;-71
2022/06/28 08:16:03;;;;;;;5.78;2.00;;;20.30;99.90;;;;;;5014952;28;20120;-72
2022/06/28 08:18:29;;;;;;;10.77;2.53;;;20.10;99.90;;;;;;5033102;28;20038;-71
2022/06/28 08:20:54;;;;;;;6.75;1.80;;;20.60;99.90;;;;;;5015140;28;20522;-72
2022/06/28 08:23:20;;;;;;;7.30;1.38;;;21.20;99.90;;;;;;5032960;28;20029;-71
2022/06/28 08:25:46;;;;;;;9.68;1.88;;;21.60;99.90;;;;;;5032676;28;20072;-72
2022/06/28 08:28:13;;;;;;;6.70;1.70;;;21.90;99.90;;;;;;5002651;28;20507;-72
2022/06/28 08:30:40;;;;;;;7.65;1.67;;;21.70;99.90;;;;;;4995347;28;20113;-72
2022/06/28 08:33:06;;;;;;;7.93;1.75;;;21.60;99.90;;;;;;5012228;28;20064;-71
2022/06/28 08:35:32;;;;;;;7.45;1.77;;;21.30;99.90;;;;;;4995085;28;20172;-72
2022/06/28 08:37:57;;;;;;;5.45;1.60;;;20.90;99.90;;;;;;5013223;28;20088;-72
2022/06/28 08:40:25;;;;;;;5.75;1.55;;;20.90;99.90;;;;;;5012946;28;20186;-71
2022/06/28 08:42:57;;;;;;;4.32;1.33;;;20.90;99.90;;;;;;4995476;28;20038;-72
2022/06/28 08:45:23;;;;;;;6.75;1.50;;;21.50;99.90;;;;;;4995089;28;20045;-72
2022/06/28 08:47:55;;;;;;;6.57;1.52;;;21.70;99.90;;;;;;5012950;28;20038;-71
2022/06/28 08:50:30;;;;;;;7.55;1.75;;;22.20;99.90;;;;;;5012885;28;20076;-72
2022/06/28 08:52:59;;;;;;;6.18;1.83;;;22.70;99.90;;;;;;5012934;28;20048;-72
2022/06/28 08:55:25;;;;;;;9.55;1.63;;;23.00;99.90;;;;;;4993897;28;20050;-71
2022/06/28 08:57:53;;;;;;;4.22;1.35;;;23.30;99.30;;;;;;5011618;28;20042;-72
2022/06/28 09:00:19;;;;;;;6.25;1.98;;;23.70;98.90;;;;;;4993788;28;20117;-71
2022/06/28 09:02:46;;;;;;;5.25;1.42;;;23.70;96.60;;;;;;5011386;28;20137;-72
2022/06/28 09:05:12;;;;;;;5.43;1.45;;;24.10;95.70;;;;;;5010984;28;20053;-72
2022/06/28 09:07:37;;;;;;;5.00;1.55;;;24.20;95.10;;;;;;5011064;28;20042;-72
2022/06/28 09:10:03;;;;;;;5.05;1.35;;;24.00;93.10;;;;;;5011280;28;20034;-72
2022/06/28 09:12:33;;;;;;;3.35;1.42;;;24.30;93.10;;;;;;5011397;28;20034;-72
2022/06/28 09:14:58;;;;;;;5.35;2.17;;;24.40;91.50;;;;;;4993438;28;20124;-72
2022/06/28 09:17:29;;;;;;;11.70;1.75;;;24.70;92.40;;;;;;5012358;28;20081;-72
2022/06/28 09:22:32;;;;;;;4.53;1.67;;;24.10;89.00;;;;;;5010384;28;20046;-78
2022/06/28 09:25:03;;;;;;;5.72;1.95;;;24.40;86.50;;;;;;5013157;28;20582;-78
2022/06/28 09:27:34;;;;;;;7.50;1.48;;;24.40;90.60;;;;;;5012883;28;20052;-77
2022/06/28 09:30:02;;;;;;;3.45;1.23;;;24.20;88.30;;;;;;5011849;28;20065;-78
2022/06/28 09:32:30;;;;;;;6.45;1.35;;;24.00;91.60;;;;;;5012752;28;20050;-78
2022/06/28 09:35:06;;;;;;;4.45;1.40;;;23.60;91.40;;;;;;5028452;28;20069;-78
2022/06/28 09:37:43;;;;;;;5.03;1.50;;;23.40;90.20;;;;;;4995140;28;20069;-78
2022/06/28 09:40:22;;;;;;;7.60;1.75;;;23.30;89.60;;;;;;5011035;28;20132;-78
2022/06/28 09:43:08;;;;;;;7.53;1.40;;;23.30;89.80;;;;;;5027476;28;20053;-78
2022/06/28 09:45:35;;;;;;;4.07;1.15;;;23.30;88.00;;;;;;5010943;28;20192;-78
2022/06/28 09:48:01;;;;;;;2.83;1.17;;;23.40;90.90;;;;;;4994500;28;20050;-77
2022/06/28 09:50:30;;;;;;;3.35;1.23;;;23.40;91.20;;;;;;5011216;28;20041;-78
2022/06/28 09:52:56;;;;;;;5.85;1.70;;;23.40;91.60;;;;;;4994797;28;20492;-78
2022/06/28 09:55:26;;;;;;;5.35;1.50;;;23.30;90.50;;;;;;5011980;28;20121;-78
2022/06/28 09:57:52;;;;;;;4.57;1.40;;;23.20;90.50;;;;;;4994632;28;20048;-78
2022/06/28 10:00:21;;;;;;;6.07;1.17;;;23.40;91.80;;;;;;5027418;28;20049;-78
2022/06/28 10:02:48;;;;;;;6.43;1.20;;;23.40;89.20;;;;;;5010950;28;20038;-77
2022/06/28 10:05:14;;;;;;;6.15;1.35;;;23.10;89.50;;;;;;5010829;28;20045;-78
2022/06/28 10:07:40;;;;;;;11.93;2.67;;;23.00;90.50;;;;;;5027259;28;20042;-78
2022/06/28 10:10:08;;;;;;;6.95;1.55;;;23.00;88.50;;;;;;5011611;28;20103;-78
2022/06/28 10:15:23;;;;;;;7.50;1.40;;;23.70;87.30;;;;;;5011627;28;20038;-77
2022/06/28 10:18:00;;;;;;;4.68;1.50;;;23.80;84.40;;;;;;5000969;28;20038;-78
2022/06/28 10:20:31;;;;;;;3.03;1.02;;;23.60;83.20;;;;;;5001236;28;20049;-78
2022/06/28 10:23:23;;;;;;;5.05;1.60;;;23.50;82.40;;;;;;5001539;28;20038;-78
2022/06/28 10:26:08;;;;;;;5.60;1.30;;;23.20;83.50;;;;;;5008630;28;20389;-78
2022/06/28 10:29:02;;;;;;;7.05;1.60;;;22.90;86.50;;;;;;4982220;28;20042;-77
2022/06/28 10:31:30;;;;;;;5.13;1.35;;;22.80;87.80;;;;;;4995399;28;20439;-77
2022/06/28 10:34:03;;;;;;;4.55;1.65;;;22.20;89.00;;;;;;4978892;28;20042;-77
2022/06/28 10:36:41;;;;;;;7.75;1.42;;;22.00;89.70;;;;;;4994687;28;20042;-77
2022/06/28 10:39:06;;;;;;;7.18;1.67;;;21.80;90.00;;;;;;4994731;28;20049;-77
2022/06/28 10:41:42;;;;;;;5.05;1.38;;;21.80;91.30;;;;;;4994527;28;20047;-77
2022/06/28 10:44:12;;;;;;;6.45;2.05;;;21.60;93.30;;;;;;4994892;28;20039;-77
2022/06/28 10:46:39;;;;;;;3.95;1.30;;;21.40;92.90;;;;;;4978211;28;20065;-77
2022/06/28 10:49:10;;;;;;;2.45;1.23;;;21.40;93.20;;;;;;4978410;28;20459;-77
2022/06/28 10:51:41;;;;;;;6.35;1.60;;;21.60;92.80;;;;;;4978257;28;20090;-77
2022/06/28 10:54:10;;;;;;;6.63;1.75;;;21.60;93.40;;;;;;4994683;28;20073;-77
2022/06/28 10:56:47;;;;;;;6.78;1.50;;;21.60;93.00;;;;;;4999775;28;20044;-77
2022/06/28 10:59:15;;;;;;;5.35;1.55;;;21.80;93.10;;;;;;4978114;28;20042;-77
2022/06/28 11:01:40;;;;;;;4.80;1.40;;;21.90;93.00;;;;;;4994591;28;20093;-78
2022/06/28 11:04:18;;;;;;;5.97;1.60;;;21.90;92.90;;;;;;4978292;28;20046;-78
2022/06/28 11:06:51;;;;;;;7.47;1.25;;;21.80;93.30;;;;;;4978097;28;20049;-77
2022/06/28 11:09:22;;;;;;;;;;;21.70;94.10;;;;;;4996062;28;20061;-79
2022/06/28 11:12:11;;;;;;;7.07;1.92;;;21.70;95.30;;;;;;4998761;28;19965;-78
2022/06/28 11:14:53;;;;;;;4.63;1.70;;;22.00;92.90;;;;;;5004588;28;20400;-78
2022/06/28 11:17:20;;;;;;;7.65;1.58;;;22.30;89.50;;;;;;4995010;28;20069;-79
2022/06/28 11:19:53;;;;;;;8.02;1.52;;;22.50;90.40;;;;;;4980670;28;20037;-79
2022/06/28 11:22:21;;;;;;;5.65;1.48;;;22.70;89.20;;;;;;5005238;28;20030;-78
2022/06/28 11:24:51;;;;;;;6.35;2.03;;;22.80;87.80;;;;;;5004125;28;20081;-78
2022/06/28 11:27:22;;;;;;;6.53;1.88;;;22.90;88.90;;;;;;4986321;28;20117;-77
2022/06/28 11:30:00;;;;;;;4.60;1.75;;;23.10;88.30;;;;;;5013971;28;20046;-78
2022/06/28 11:32:34;;;;;;;3.70;1.48;;;23.10;90.50;;;;;;5011336;28;20038;-78
2022/06/28 11:35:15;;;;;;;5.50;1.65;;;22.80;89.00;;;;;;4995512;28;20038;-78
2022/06/28 11:37:55;;;;;;;6.82;1.40;;;22.70;88.30;;;;;;4997276;28;20065;-77
2022/06/28 11:40:25;;;;;;;6.68;1.90;;;22.50;88.90;;;;;;4996115;28;20120;-78
2022/06/28 11:43:04;;;;;;;5.82;1.77;;;22.60;91.10;;;;;;5013756;28;20042;-75
2022/06/28 11:45:31;;;;;;;6.97;1.40;;;22.70;91.00;;;;;;5001054;28;20034;-78
2022/06/28 11:48:03;;;;;;;4.88;1.50;;;22.80;87.80;;;;;;5001777;28;20078;-77
2022/06/28 11:50:38;;;;;;;3.78;1.58;;;22.90;85.00;;;;;;5014678;28;20041;-77
2022/06/28 11:53:03;;;;;;;4.43;1.48;;;23.00;86.90;;;;;;4997340;28;20577;-77
2022/06/28 11:55:41;;;;;;;5.35;1.92;;;22.90;86.40;;;;;;5013577;28;20038;-76
2022/06/28 11:58:17;;;;;;;4.05;1.45;;;22.90;83.40;;;;;;5014432;28;20492;-77
2022/06/28 12:01:02;;;;;;;4.10;1.30;;;23.10;84.60;;;;;;5000231;28;20045;-77
2022/06/28 12:03:28;;;;;;;7.10;1.30;;;23.20;80.80;;;;;;5014651;28;20533;-77
2022/06/28 12:06:00;;;;;;;6.65;1.35;;;23.20;83.20;;;;;;4998674;28;20038;-77
2022/06/28 12:08:42;;;;;;;4.00;0.98;;;23.30;80.60;;;;;;5013092;28;20120;-77
2022/06/28 12:11:23;;;;;;;5.18;1.20;;;23.20;77.40;;;;;;5013275;28;20045;-77
2022/06/28 12:13:48;;;;;;;3.75;1.17;;;23.20;81.40;;;;;;4997771;28;20042;-77
2022/06/28 12:16:17;;;;;;;3.78;1.00;;;23.30;79.60;;;;;;4998785;28;20048;-77
2022/06/28 12:18:56;;;;;;;3.38;1.13;;;23.50;77.30;;;;;;5016525;28;20074;-77
2022/06/28 12:21:22;;;;;;;3.15;1.30;;;23.50;75.20;;;;;;5013799;28;20499;-77
2022/06/28 12:23:49;;;;;;;5.40;0.90;;;23.50;74.40;;;;;;5014662;28;20041;-76
2022/06/28 12:26:16;;;;;;;7.20;1.35;;;23.50;74.50;;;;;;5012303;28;20052;-77
2022/06/28 12:28:42;;;;;;;5.82;1.10;;;23.50;73.90;;;;;;5013312;28;20494;-77
2022/06/28 12:31:07;;;;;;;4.63;1.13;;;23.60;75.80;;;;;;5012676;28;20128;-76
2022/06/28 12:33:33;;;;;;;4.30;1.20;;;23.60;73.90;;;;;;4996893;28;20069;-77
2022/06/28 12:35:58;;;;;;;5.13;1.08;;;23.50;74.50;;;;;;4996085;28;20076;-77
2022/06/28 12:38:24;;;;;;;3.88;1.10;;;23.50;73.60;;;;;;4996623;28;20041;-77
2022/06/28 12:40:50;;;;;;;5.20;1.40;;;23.50;75.20;;;;;;4996242;28;20129;-77
2022/06/28 12:43:16;;;;;;;4.50;1.40;;;23.50;75.80;;;;;;5012448;28;20037;-77
2022/06/28 12:45:41;;;;;;;3.25;1.02;;;23.30;73.90;;;;;;4995313;28;20121;-77
2022/06/28 12:48:07;;;;;;;4.50;1.58;;;23.00;72.90;;;;;;4995456;28;20038;-77
2022/06/28 12:50:33;;;;;;;7.97;1.05;;;22.80;72.90;;;;;;4995339;28;20403;-77
2022/06/28 12:52:59;;;;;;;8.25;1.15;;;22.70;70.90;;;;;;4997880;28;20041;-77
2022/06/28 12:55:24;;;;;;;5.72;1.00;;;22.90;68.90;;;;;;5013341;28;20045;-77